METAR Data
IDs: Format: Raw Decoded Include TAF

Data at: 1249 UTC 16 Oct 2018

PAVC 161156Z AUTO 22009G14KT 10SM BKN015 OVC023 09/07 A2901 RMK AO2 SLP828 60001 70054 T00940072 10094 20083 51011
PAVC 161056Z AUTO 25006KT 10SM OVC019 08/07 A2900 RMK AO2 RAB07E21B39E50 SLP825 P0000 T00830072
PAVC 160956Z AUTO 22007KT 10SM FEW012 BKN020 OVC028 09/08 A2899 RMK AO2 RAB44E56 SLP821 P0000 T00890078
PAVC 160856Z AUTO 22009KT 10SM FEW009 SCT014 OVC020 09/08 A2897 RMK AO2 RAB17E42 SLP817 P0000 60001 T00890078 401110083 51018
PAVC 160756Z AUTO 21009KT 10SM BKN020 OVC060 09/08 A2896 RMK AO2 RAB32E48 SLP811 P0001 T00890078
PAVC 160656Z AUTO 22005KT 10SM BKN017 OVC022 09/07 A2894 RMK AO2 RAE28 SLP806 P0000 T00890072
PAVC 160624Z AUTO 23003KT 10SM -RA FEW013 BKN022 OVC045 09/08 A2893 RMK AO2 P0000
PAVC 160556Z AUTO 24005KT 10SM -RA FEW032 BKN049 OVC055 09/08 A2892 RMK AO2 SLP799 P0001 60011 T00890078 10111 20089 51020
PAVC 160537Z AUTO 26005KT 10SM -RA FEW014 BKN048 OVC055 09/08 A2891 RMK AO2 P0001
PAVC 160456Z AUTO 23010G18KT 10SM -RA FEW009 BKN021 OVC028 09/08 A2890 RMK AO2 RAB0358 SLP792 P0002 T00940083
PAVC 160451Z AUTO 22012G18KT 10SM -RA SCT009 BKN019 OVC028 09/08 A2890 RMK AO2 RAB0358 P0002
PAVC 160422Z AUTO 24009G18KT 210V270 7SM -RA BKN007 BKN014 OVC021 09/08 A2889 RMK AO2 RAB0358 CIG 005V011 P0002
PAVC 160411Z AUTO 22010G19KT 2SM RA BR BKN007 BKN019 OVC030 09/08 A2889 RMK AO2 VIS 1 1/2V4 RAB0358 CIG 005V013 P0001
PAVC 160356Z AUTO 22009KT 10SM BKN007 BKN011 OVC021 09/08 A2889 RMK AO2 RAE34 SLP787 P0000 T00940083
PAVC 160350Z AUTO 22011KT 10SM SCT007 BKN011 OVC042 09/08 A2888 RMK AO2 RAE34 P0000
PAVC 160256Z AUTO 21013KT 10SM -RA BKN016 OVC024 09/08 A2886 RMK AO2 SLP779 P0007 60008 T00890078 53016
PAVC 160246Z AUTO 21012G20KT 3SM -RA BR BKN013 OVC018 09/08 A2886 RMK AO2 P0007
PAVC 160238Z AUTO 21013G19KT 2 1/2SM -RA BR SCT010 BKN015 OVC020 09/08 A2886 RMK AO2 VIS 1 3/4V4 P0006
PAVC 160232Z AUTO 21011G18KT 3SM -RA BR SCT009 BKN014 OVC026 09/08 A2885 RMK AO2 P0005
PAVC 160222Z AUTO 22012KT 2 1/2SM -RA BR SCT010 BKN013 OVC026 09/08 A2885 RMK AO2 P0004
PAVC 160156Z AUTO 20013KT 10SM -RA FEW015 BKN026 OVC039 09/08 A2884 RMK AO2 RAB23 SLP771 P0000 T00940083
PAVC 160143Z AUTO 20012KT 10SM FEW015 BKN029 OVC050 09/08 A2883 RMK AO2 RAB23E36 P0000
PAVC 160056Z AUTO 20007KT 10SM FEW012 SCT039 BKN065 10/08 A2882 RMK AO2 RAE18 SLP766 P0001 T01000083
PAVC 160039Z AUTO 22010KT 10SM FEW009 SCT022 BKN043 11/08 A2882 RMK AO2 RAE18 P0001
PAVC 160016Z AUTO 22005KT 10SM -RA FEW007 SCT011 BKN019 10/09 A2882 RMK AO2 P0001
PAVC 160003Z AUTO 22005KT 2 1/2SM -RA BR SCT007 BKN011 OVC018 09/08 A2882 RMK AO2 P0001
PAVC 152356Z AUTO 00000KT 9SM -RA BKN011 BKN017 OVC022 10/09 A2882 RMK AO2 RAE2257B22 SLP763 P0000 60019 T01000089 10100 20083 53001
PAVC 152332Z AUTO 08005KT 8SM -RA FEW012 OVC021 10/09 A2881 RMK AO2 RAE2257B22 P0000
PAVC 152256Z AUTO 09007KT 10SM -RA SCT008 BKN023 OVC040 10/09 A2881 RMK AO2 RAB28 SLP762 P0002 T01000094
PAVC 152243Z AUTO 09007KT 5SM RA BR SCT008 SCT022 OVC040 09/09 A2881 RMK AO2 RAB28 P0002
PAVC 152156Z AUTO 08010KT 10SM BKN008 BKN022 OVC028 10/09 A2881 RMK AO2 RAE25 CIG 006V013 SLP762 P0000 T01000089
PAVC 152141Z AUTO 08013KT 10SM BKN008 OVC012 10/09 A2881 RMK AO2 RAE25 P0000
PAVC 152132Z AUTO 08012KT 10SM SCT008 BKN013 OVC018 10/09 A2881 RMK AO2 RAE25 P0000
PAVC 152105Z AUTO 08013KT 10SM -RA SCT009 BKN020 OVC055 09/09 A2882 RMK AO2 P0000
PAVC 152056Z AUTO 08013G19KT 5SM -RA BR BKN009 BKN015 OVC036 09/09 A2882 RMK AO2 CIG 006V011 SLP766 P0014 60017 T00940089 58009
PAVC 152012Z AUTO 06008KT 6SM -RA BR FEW008 BKN011 OVC032 09/08 A2884 RMK AO2 P0008
PAVC 152002Z AUTO 11010KT 2 1/2SM +RA BR SCT006 BKN015 OVC033 09/08 A2884 RMK AO2 P0005
PAVC 151956Z AUTO 10013KT 5SM RA BR SCT006 BKN013 OVC026 09/08 A2884 RMK AO2 RAB28 SLP772 P0003 T00890083
PAVC 151946Z AUTO 09012G18KT 3SM -RA BR FEW006 BKN011 OVC026 09/08 A2884 RMK AO2 RAB28 P0002
PAVC 151930Z AUTO 08013KT 8SM -RA SCT011 BKN025 OVC029 09/08 A2884 RMK AO2 RAB28 P0000
PAVC 151856Z AUTO 08012G20KT 8SM BKN011 BKN016 OVC029 09/08 A2885 RMK AO2 RAB22E33 SLP774 P0000 T00940083
PAVC 151837Z AUTO 09014G18KT 9SM BKN011 BKN016 OVC029 09/09 A2885 RMK AO2 RAB22E33 CIG 008V012 P0000
PAVC 151827Z AUTO 10012G18KT 6SM -RA BR BKN009 BKN016 OVC023 09/09 A2884 RMK AO2 RAB22 CIG 008V012 P0000
PAVC 151756Z AUTO 08012KT 9SM OVC010 09/08 A2885 RMK AO2 RAE11 CIG 008V013 SLP775 P0001 60023 T00940083 10094 20089 55005
PAVC 151656Z AUTO 06010KT 5SM -RA BR OVC010 09/08 A2885 RMK AO2 CIG 004V016 SLP774 P0009 T00890083
PAVC 151630Z AUTO 09015G20KT 4SM RA BR BKN008 BKN013 OVC044 09/08 A2885 RMK AO2 CIG 004V011 P0005
PAVC 151556Z AUTO 10015G21KT 8SM -RA BKN010 OVC015 09/08 A2886 RMK AO2 CIG 007V014 SLP778 P0002 T00940083
PAVC 151456Z AUTO 09019G23KT 7SM -RA BKN011 OVC017 09/08 A2887 RMK AO2 RAB18 SLP780 P0001 60011 T00940083 58013
PAVC 151440Z AUTO 08013KT 8SM -RA BKN010 OVC017 09/08 A2887 RMK AO2 RAB18 P0001
PAVC 151403Z AUTO 08011KT 10SM OVC015 09/08 A2888 RMK AO2
PAVC 151356Z AUTO 09012KT 9SM BKN013 OVC020 09/08 A2889 RMK AO2 RAE19 SLP787 P0003 T00940083
PAVC 151256Z AUTO 08008G18KT 5SM RA BR BKN008 OVC015 09/08 A2889 RMK AO2 PK WND 09027/1208 CIG 005V014 SLP789 P0007 T00940083
PAVC 151245Z AUTO 07013KT 7SM -RA BKN008 OVC014 09/09 A2889 RMK AO2 PK WND 09027/1208 CIG 005V011 P0005
PAVC 151222Z AUTO 07012G20KT 7SM -RA SCT009 OVC012 09/08 A2890 RMK AO2 PK WND 09027/1208 P0004
PAVC 151156Z AUTO 08015KT 6SM -RA BR BKN012 OVC018 09/09 A2890 RMK AO2 RAE12B44 SLP793 P0001 60007 70055 T00940089 10100 20089 58018
PAVC 151143Z AUTO 07014G19KT 8SM FEW007 BKN012 OVC018 09/08 A2891 RMK AO2 RAE12 P0001
PAVC 151133Z AUTO 08014KT 8SM BKN011 OVC016 09/09 A2891 RMK AO2 RAE12 P0001
PAVC 151122Z AUTO 09013G19KT 9SM OVC009 09/09 A2892 RMK AO2 RAE12 CIG 007V013 P0001
PAVC 151059Z AUTO 07013KT 7SM -RA OVC013 09/08 A2892 RMK AO2 P0001
PAVC 151056Z AUTO 06013KT 10SM -RA OVC015 09/08 A2892 RMK AO2 SLP799 P0001 T00940083
PAVC 150956Z AUTO 08014KT 9SM -RA FEW010 SCT014 OVC021 09/08 A2894 RMK AO2 RAE01B23 SLP807 P0001 T00940083
PAVC 150856Z AUTO 08015G20KT 7SM -RA BKN010 OVC014 09/09 A2896 RMK AO2 RAB35 CIG 006V012 SLP811 P0002 60004 T00940089 401060072 58014
PAVC 150829Z AUTO 08016G21KT 10SM OVC014 09/08 A2896 RMK AO2
PAVC 150756Z AUTO 08015KT 10SM BKN016 BKN022 OVC030 09/08 A2897 RMK AO2 RAE41 SLP817 P0001 T00940078
PAVC 150656Z AUTO 07015KT 8SM -RA FEW013 BKN022 OVC039 09/08 A2899 RMK AO2 RAB48 SLP821 P0001 T00940083
PAVC 150625Z AUTO 08017G24KT 8SM BKN015 BKN019 OVC025 10/08 A2899 RMK AO2
PAVC 150608Z AUTO 08017G23KT 8SM OVC013 10/08 A2899 RMK AO2
PAVC 150556Z AUTO 08016G23KT 8SM OVC015 10/08 A2900 RMK AO2 RAB41E52 SLP825 P0000 60000 T01000083 10106 20094 58006
PAVC 150456Z AUTO 08016G20KT 7SM OVC014 10/08 A2900 RMK AO2 RAB01E19 SLP827 P0000 T01000083
PAVC 150356Z AUTO 08013G20KT 6SM BR BKN012 OVC028 10/08 A2901 RMK AO2 RAB37E49 SLP829 P0000 T01000083
PAVC 150256Z AUTO 09016KT 6SM BR BKN012 OVC060 10/09 A2901 RMK AO2 SLP831 60000 T01000089 56011
PAVC 150156Z AUTO 09013KT 7SM OVC012 10/09 A2902 RMK AO2 RAB00E18 SLP833 P0000 T01000089
PAVC 150056Z AUTO 07013G18KT 7SM OVC012 10/09 A2903 RMK AO2 SLP836 T01000089